sensor_id;sensor_type;location;lat;lon;timestamp;temperature;humidity
37910;DHT22;23741;49.446;8.754;2023-03-15T00:01:54;9.60;62.60
37910;DHT22;23741;49.446;8.754;2023-03-15T00:03:55;9.60;62.50
37910;DHT22;23741;49.446;8.754;2023-03-15T00:05:57;9.60;62.60
37910;DHT22;23741;49.446;8.754;2023-03-15T00:08:01;9.60;62.60
37910;DHT22;23741;49.446;8.754;2023-03-15T00:10:05;9.60;62.70
37910;DHT22;23741;49.446;8.754;2023-03-15T00:12:06;9.60;62.70
37910;DHT22;23741;49.446;8.754;2023-03-15T00:14:08;9.50;62.70
37910;DHT22;23741;49.446;8.754;2023-03-15T00:16:10;9.60;62.70
37910;DHT22;23741;49.446;8.754;2023-03-15T00:18:13;9.60;62.60
37910;DHT22;23741;49.446;8.754;2023-03-15T00:20:14;9.50;62.50
37910;DHT22;23741;49.446;8.754;2023-03-15T00:22:16;9.50;62.50
37910;DHT22;23741;49.446;8.754;2023-03-15T00:24:18;9.50;62.40
37910;DHT22;23741;49.446;8.754;2023-03-15T00:26:20;9.50;62.50
37910;DHT22;23741;49.446;8.754;2023-03-15T00:28:23;9.40;62.40
37910;DHT22;23741;49.446;8.754;2023-03-15T00:30:25;9.40;62.40
37910;DHT22;23741;49.446;8.754;2023-03-15T00:32:27;9.40;62.40
37910;DHT22;23741;49.446;8.754;2023-03-15T00:34:31;9.40;62.40
37910;DHT22;23741;49.446;8.754;2023-03-15T00:36:32;9.30;62.60
37910;DHT22;23741;49.446;8.754;2023-03-15T00:38:34;9.30;62.70
37910;DHT22;23741;49.446;8.754;2023-03-15T00:40:36;9.30;62.90
37910;DHT22;23741;49.446;8.754;2023-03-15T00:42:39;9.30;63.10
37910;DHT22;23741;49.446;8.754;2023-03-15T00:44:43;9.30;63.00
37910;DHT22;23741;49.446;8.754;2023-03-15T00:46:45;9.30;62.80
37910;DHT22;23741;49.446;8.754;2023-03-15T00:48:47;9.20;62.80
37910;DHT22;23741;49.446;8.754;2023-03-15T00:50:49;9.20;62.70
37910;DHT22;23741;49.446;8.754;2023-03-15T00:52:51;9.20;62.60
37910;DHT22;23741;49.446;8.754;2023-03-15T00:54:53;9.20;62.60
37910;DHT22;23741;49.446;8.754;2023-03-15T00:56:56;9.20;62.50
37910;DHT22;23741;49.446;8.754;2023-03-15T00:58:57;9.20;62.60
37910;DHT22;23741;49.446;8.754;2023-03-15T01:00:59;9.10;62.70
37910;DHT22;23741;49.446;8.754;2023-03-15T01:03:01;9.10;62.80
37910;DHT22;23741;49.446;8.754;2023-03-15T01:05:04;9.00;62.70
37910;DHT22;23741;49.446;8.754;2023-03-15T01:07:06;9.00;62.70
37910;DHT22;23741;49.446;8.754;2023-03-15T01:09:08;9.00;62.70
37910;DHT22;23741;49.446;8.754;2023-03-15T01:11:11;9.00;62.70
37910;DHT22;23741;49.446;8.754;2023-03-15T01:13:13;9.00;62.70
37910;DHT22;23741;49.446;8.754;2023-03-15T01:15:14;9.00;62.70
37910;DHT22;23741;49.446;8.754;2023-03-15T01:17:17;8.90;62.70
37910;DHT22;23741;49.446;8.754;2023-03-15T01:19:19;8.90;62.50
37910;DHT22;23741;49.446;8.754;2023-03-15T01:21:21;8.90;62.50
37910;DHT22;23741;49.446;8.754;2023-03-15T01:23:23;8.90;62.50
37910;DHT22;23741;49.446;8.754;2023-03-15T01:25:24;8.80;62.50
37910;DHT22;23741;49.446;8.754;2023-03-15T01:27:26;8.80;62.50
37910;DHT22;23741;49.446;8.754;2023-03-15T01:29:28;8.80;62.50
37910;DHT22;23741;49.446;8.754;2023-03-15T01:31:30;8.80;62.50
37910;DHT22;23741;49.446;8.754;2023-03-15T01:33:31;8.80;62.50
37910;DHT22;23741;49.446;8.754;2023-03-15T01:35:33;8.70;62.60
37910;DHT22;23741;49.446;8.754;2023-03-15T01:37:35;8.70;62.60
37910;DHT22;23741;49.446;8.754;2023-03-15T01:39:37;8.70;62.50
37910;DHT22;23741;49.446;8.754;2023-03-15T01:41:39;8.70;62.50
37910;DHT22;23741;49.446;8.754;2023-03-15T01:43:41;8.70;62.70
37910;DHT22;23741;49.446;8.754;2023-03-15T01:47:52;8.60;62.80
37910;DHT22;23741;49.446;8.754;2023-03-15T01:50:00;8.60;62.90
37910;DHT22;23741;49.446;8.754;2023-03-15T01:52:08;8.60;62.80
37910;DHT22;23741;49.446;8.754;2023-03-15T01:56:22;8.50;62.80
37910;DHT22;23741;49.446;8.754;2023-03-15T01:58:25;8.50;62.90
37910;DHT22;23741;49.446;8.754;2023-03-15T02:00:28;8.50;62.90
37910;DHT22;23741;49.446;8.754;2023-03-15T02:02:37;8.50;62.80
37910;DHT22;23741;49.446;8.754;2023-03-15T02:04:42;8.50;62.60
37910;DHT22;23741;49.446;8.754;2023-03-15T02:06:48;8.50;62.60
37910;DHT22;23741;49.446;8.754;2023-03-15T02:09:02;8.40;62.40
37910;DHT22;23741;49.446;8.754;2023-03-15T02:11:08;8.40;62.70
37910;DHT22;23741;49.446;8.754;2023-03-15T02:13:11;8.40;63.00
37910;DHT22;23741;49.446;8.754;2023-03-15T02:15:14;8.30;62.90
37910;DHT22;23741;49.446;8.754;2023-03-15T02:17:16;8.30;63.10
37910;DHT22;23741;49.446;8.754;2023-03-15T02:19:23;8.30;63.30
37910;DHT22;23741;49.446;8.754;2023-03-15T02:23:29;8.30;63.40
37910;DHT22;23741;49.446;8.754;2023-03-15T02:27:52;8.30;63.40
37910;DHT22;23741;49.446;8.754;2023-03-15T02:29:55;8.30;63.30
37910;DHT22;23741;49.446;8.754;2023-03-15T02:31:57;8.20;63.30
37910;DHT22;23741;49.446;8.754;2023-03-15T02:33:59;8.20;63.30
37910;DHT22;23741;49.446;8.754;2023-03-15T02:36:09;8.30;63.30
37910;DHT22;23741;49.446;8.754;2023-03-15T02:38:11;8.20;63.20
37910;DHT22;23741;49.446;8.754;2023-03-15T02:40:15;8.20;63.10
37910;DHT22;23741;49.446;8.754;2023-03-15T02:42:18;8.20;63.10
37910;DHT22;23741;49.446;8.754;2023-03-15T02:46:27;8.10;63.00
37910;DHT22;23741;49.446;8.754;2023-03-15T02:48:30;8.10;63.10
37910;DHT22;23741;49.446;8.754;2023-03-15T02:50:34;8.10;63.20
37910;DHT22;23741;49.446;8.754;2023-03-15T02:52:35;8.10;63.20
37910;DHT22;23741;49.446;8.754;2023-03-15T02:54:37;8.10;63.10
37910;DHT22;23741;49.446;8.754;2023-03-15T02:56:41;8.10;63.20
37910;DHT22;23741;49.446;8.754;2023-03-15T02:58:43;8.10;63.30
37910;DHT22;23741;49.446;8.754;2023-03-15T03:00:48;8.10;63.40
37910;DHT22;23741;49.446;8.754;2023-03-15T03:02:52;8.10;63.30
37910;DHT22;23741;49.446;8.754;2023-03-15T03:04:54;8.10;63.30
37910;DHT22;23741;49.446;8.754;2023-03-15T03:06:55;8.00;63.10
37910;DHT22;23741;49.446;8.754;2023-03-15T03:09:03;8.00;63.80
37910;DHT22;23741;49.446;8.754;2023-03-15T03:11:05;8.00;63.00
37910;DHT22;23741;49.446;8.754;2023-03-15T03:13:07;8.00;63.30
37910;DHT22;23741;49.446;8.754;2023-03-15T03:15:11;8.00;63.20
37910;DHT22;23741;49.446;8.754;2023-03-15T03:17:14;8.00;63.30
37910;DHT22;23741;49.446;8.754;2023-03-15T03:19:16;8.00;63.20
37910;DHT22;23741;49.446;8.754;2023-03-15T03:21:18;8.00;63.10
37910;DHT22;23741;49.446;8.754;2023-03-15T03:23:20;7.90;63.00
37910;DHT22;23741;49.446;8.754;2023-03-15T03:25:21;7.90;63.00
37910;DHT22;23741;49.446;8.754;2023-03-15T03:27:27;7.90;63.10
37910;DHT22;23741;49.446;8.754;2023-03-15T03:29:30;7.90;63.40
37910;DHT22;23741;49.446;8.754;2023-03-15T03:31:34;7.80;63.70
37910;DHT22;23741;49.446;8.754;2023-03-15T03:33:36;7.80;63.60
37910;DHT22;23741;49.446;8.754;2023-03-15T03:35:38;7.80;63.90
37910;DHT22;23741;49.446;8.754;2023-03-15T03:37:40;7.80;63.90
37910;DHT22;23741;49.446;8.754;2023-03-15T03:39:49;7.80;63.90
37910;DHT22;23741;49.446;8.754;2023-03-15T03:41:51;7.80;64.00
37910;DHT22;23741;49.446;8.754;2023-03-15T03:43:54;7.80;63.90
37910;DHT22;23741;49.446;8.754;2023-03-15T03:45:57;7.80;63.80
37910;DHT22;23741;49.446;8.754;2023-03-15T03:47:59;7.80;63.70
37910;DHT22;23741;49.446;8.754;2023-03-15T03:50:01;7.80;63.90
37910;DHT22;23741;49.446;8.754;2023-03-15T03:52:03;7.80;64.00
37910;DHT22;23741;49.446;8.754;2023-03-15T03:54:05;7.80;64.00
37910;DHT22;23741;49.446;8.754;2023-03-15T03:56:07;7.80;64.00
37910;DHT22;23741;49.446;8.754;2023-03-15T03:58:10;7.70;64.10
37910;DHT22;23741;49.446;8.754;2023-03-15T04:00:23;7.70;64.20
37910;DHT22;23741;49.446;8.754;2023-03-15T04:02:25;7.70;64.10
37910;DHT22;23741;49.446;8.754;2023-03-15T04:04:33;7.70;64.20
37910;DHT22;23741;49.446;8.754;2023-03-15T04:06:36;7.70;64.20
37910;DHT22;23741;49.446;8.754;2023-03-15T04:08:37;7.70;64.10
37910;DHT22;23741;49.446;8.754;2023-03-15T04:10:40;7.70;64.20
37910;DHT22;23741;49.446;8.754;2023-03-15T04:12:43;7.70;64.30
37910;DHT22;23741;49.446;8.754;2023-03-15T04:14:47;7.70;64.20
37910;DHT22;23741;49.446;8.754;2023-03-15T04:16:50;7.70;64.30
37910;DHT22;23741;49.446;8.754;2023-03-15T04:18:53;7.70;64.70
37910;DHT22;23741;49.446;8.754;2023-03-15T04:20:56;7.70;64.30
37910;DHT22;23741;49.446;8.754;2023-03-15T04:22:59;7.70;64.20
37910;DHT22;23741;49.446;8.754;2023-03-15T04:25:15;7.70;64.20
37910;DHT22;23741;49.446;8.754;2023-03-15T04:27:16;7.70;64.20
37910;DHT22;23741;49.446;8.754;2023-03-15T04:29:53;7.70;64.20
37910;DHT22;23741;49.446;8.754;2023-03-15T04:32:13;7.70;64.50
37910;DHT22;23741;49.446;8.754;2023-03-15T04:34:24;7.70;64.20
37910;DHT22;23741;49.446;8.754;2023-03-15T04:36:48;7.70;64.30
37910;DHT22;23741;49.446;8.754;2023-03-15T04:39:08;7.60;64.30
37910;DHT22;23741;49.446;8.754;2023-03-15T04:41:23;7.60;64.20
37910;DHT22;23741;49.446;8.754;2023-03-15T04:43:43;7.60;64.20
37910;DHT22;23741;49.446;8.754;2023-03-15T04:46:07;7.60;64.10
37910;DHT22;23741;49.446;8.754;2023-03-15T04:48:30;7.60;64.30
37910;DHT22;23741;49.446;8.754;2023-03-15T04:50:55;7.60;64.30
37910;DHT22;23741;49.446;8.754;2023-03-15T04:53:17;7.60;64.10
37910;DHT22;23741;49.446;8.754;2023-03-15T04:55:48;7.60;64.20
37910;DHT22;23741;49.446;8.754;2023-03-15T04:57:52;7.60;64.30
37910;DHT22;23741;49.446;8.754;2023-03-15T05:00:13;7.50;64.30
37910;DHT22;23741;49.446;8.754;2023-03-15T05:02:35;7.50;64.30
37910;DHT22;23741;49.446;8.754;2023-03-15T05:04:49;7.50;64.50
37910;DHT22;23741;49.446;8.754;2023-03-15T05:06:58;7.50;64.40
37910;DHT22;23741;49.446;8.754;2023-03-15T05:09:20;7.50;64.30
37910;DHT22;23741;49.446;8.754;2023-03-15T05:11:33;7.50;64.40
37910;DHT22;23741;49.446;8.754;2023-03-15T05:13:53;7.50;64.30
37910;DHT22;23741;49.446;8.754;2023-03-15T05:16:07;7.50;64.10
37910;DHT22;23741;49.446;8.754;2023-03-15T05:18:16;7.50;64.20
37910;DHT22;23741;49.446;8.754;2023-03-15T05:20:40;7.50;64.10
37910;DHT22;23741;49.446;8.754;2023-03-15T05:23:01;7.50;64.20
37910;DHT22;23741;49.446;8.754;2023-03-15T05:25:12;7.50;64.20
37910;DHT22;23741;49.446;8.754;2023-03-15T05:27:39;7.50;64.20
37910;DHT22;23741;49.446;8.754;2023-03-15T05:29:49;7.50;64.70
37910;DHT22;23741;49.446;8.754;2023-03-15T05:31:57;7.50;64.80
37910;DHT22;23741;49.446;8.754;2023-03-15T05:34:11;7.50;64.70
37910;DHT22;23741;49.446;8.754;2023-03-15T05:36:32;7.50;64.70
37910;DHT22;23741;49.446;8.754;2023-03-15T05:38:53;7.50;64.60
37910;DHT22;23741;49.446;8.754;2023-03-15T05:41:13;7.50;64.80
37910;DHT22;23741;49.446;8.754;2023-03-15T05:43:32;7.50;64.80
37910;DHT22;23741;49.446;8.754;2023-03-15T05:45:52;7.50;64.80
37910;DHT22;23741;49.446;8.754;2023-03-15T05:48:17;7.50;64.70
37910;DHT22;23741;49.446;8.754;2023-03-15T05:50:28;7.60;64.70
37910;DHT22;23741;49.446;8.754;2023-03-15T05:52:49;7.60;64.80
37910;DHT22;23741;49.446;8.754;2023-03-15T05:54:59;7.60;64.80
37910;DHT22;23741;49.446;8.754;2023-03-15T05:57:19;7.60;65.10
37910;DHT22;23741;49.446;8.754;2023-03-15T05:59:39;7.60;65.80
37910;DHT22;23741;49.446;8.754;2023-03-15T06:02:07;7.60;64.70
37910;DHT22;23741;49.446;8.754;2023-03-15T06:04:18;7.70;64.80
37910;DHT22;23741;49.446;8.754;2023-03-15T06:06:20;7.60;64.70
37910;DHT22;23741;49.446;8.754;2023-03-15T06:08:22;7.70;64.70
37910;DHT22;23741;49.446;8.754;2023-03-15T06:10:25;7.60;64.70
37910;DHT22;23741;49.446;8.754;2023-03-15T06:12:28;7.70;64.50
37910;DHT22;23741;49.446;8.754;2023-03-15T06:14:30;7.70;64.50
37910;DHT22;23741;49.446;8.754;2023-03-15T06:16:37;7.70;64.50
37910;DHT22;23741;49.446;8.754;2023-03-15T06:18:40;7.70;64.70
37910;DHT22;23741;49.446;8.754;2023-03-15T06:20:42;7.70;64.50
37910;DHT22;23741;49.446;8.754;2023-03-15T06:22:47;7.70;64.40
37910;DHT22;23741;49.446;8.754;2023-03-15T06:25:00;7.70;64.60
37910;DHT22;23741;49.446;8.754;2023-03-15T06:27:03;7.70;64.50
37910;DHT22;23741;49.446;8.754;2023-03-15T06:29:08;7.80;64.60
37910;DHT22;23741;49.446;8.754;2023-03-15T06:31:10;7.80;64.60
37910;DHT22;23741;49.446;8.754;2023-03-15T06:33:23;7.80;64.40
37910;DHT22;23741;49.446;8.754;2023-03-15T06:35:25;7.80;64.40
37910;DHT22;23741;49.446;8.754;2023-03-15T06:37:27;7.80;64.50
37910;DHT22;23741;49.446;8.754;2023-03-15T06:39:36;7.90;64.20
37910;DHT22;23741;49.446;8.754;2023-03-15T06:41:38;7.80;64.10
37910;DHT22;23741;49.446;8.754;2023-03-15T06:43:45;7.80;64.00
37910;DHT22;23741;49.446;8.754;2023-03-15T06:45:47;7.80;64.00
37910;DHT22;23741;49.446;8.754;2023-03-15T06:47:49;7.80;63.90
37910;DHT22;23741;49.446;8.754;2023-03-15T06:49:51;7.80;63.80
37910;DHT22;23741;49.446;8.754;2023-03-15T06:51:56;7.80;63.60
37910;DHT22;23741;49.446;8.754;2023-03-15T06:53:57;7.80;63.70
37910;DHT22;23741;49.446;8.754;2023-03-15T06:56:00;7.80;63.60
37910;DHT22;23741;49.446;8.754;2023-03-15T06:58:01;7.80;63.80
37910;DHT22;23741;49.446;8.754;2023-03-15T07:00:03;7.80;63.90
37910;DHT22;23741;49.446;8.754;2023-03-15T07:02:15;7.80;63.80
37910;DHT22;23741;49.446;8.754;2023-03-15T07:04:17;7.80;63.50
37910;DHT22;23741;49.446;8.754;2023-03-15T07:06:19;7.80;63.40
37910;DHT22;23741;49.446;8.754;2023-03-15T07:08:21;7.80;63.40
37910;DHT22;23741;49.446;8.754;2023-03-15T07:10:23;7.80;63.80
37910;DHT22;23741;49.446;8.754;2023-03-15T07:12:25;7.80;63.90
37910;DHT22;23741;49.446;8.754;2023-03-15T07:14:27;7.80;63.90
37910;DHT22;23741;49.446;8.754;2023-03-15T07:16:29;7.80;63.70
37910;DHT22;23741;49.446;8.754;2023-03-15T07:18:34;7.80;63.70
37910;DHT22;23741;49.446;8.754;2023-03-15T07:20:36;7.80;63.50
37910;DHT22;23741;49.446;8.754;2023-03-15T07:22:38;7.80;63.50
37910;DHT22;23741;49.446;8.754;2023-03-15T07:24:40;7.80;63.70
37910;DHT22;23741;49.446;8.754;2023-03-15T07:26:42;7.80;63.70
37910;DHT22;23741;49.446;8.754;2023-03-15T07:28:44;7.80;63.80
37910;DHT22;23741;49.446;8.754;2023-03-15T07:30:55;7.80;63.90
37910;DHT22;23741;49.446;8.754;2023-03-15T07:32:57;7.80;63.90
37910;DHT22;23741;49.446;8.754;2023-03-15T07:34:59;7.80;64.10
37910;DHT22;23741;49.446;8.754;2023-03-15T07:37:01;7.80;64.30
37910;DHT22;23741;49.446;8.754;2023-03-15T07:39:03;7.90;64.40
37910;DHT22;23741;49.446;8.754;2023-03-15T07:41:05;7.90;64.10
37910;DHT22;23741;49.446;8.754;2023-03-15T07:43:07;7.90;64.00
37910;DHT22;23741;49.446;8.754;2023-03-15T07:45:09;7.90;64.10
37910;DHT22;23741;49.446;8.754;2023-03-15T07:47:11;7.90;64.20
37910;DHT22;23741;49.446;8.754;2023-03-15T07:49:13;7.90;64.20
37910;DHT22;23741;49.446;8.754;2023-03-15T07:51:14;7.90;64.20
37910;DHT22;23741;49.446;8.754;2023-03-15T07:53:16;7.90;64.00
37910;DHT22;23741;49.446;8.754;2023-03-15T07:55:18;7.90;64.00
37910;DHT22;23741;49.446;8.754;2023-03-15T07:57:20;7.90;64.00
37910;DHT22;23741;49.446;8.754;2023-03-15T07:59:22;7.90;64.00
37910;DHT22;23741;49.446;8.754;2023-03-15T08:01:23;8.00;64.00
37910;DHT22;23741;49.446;8.754;2023-03-15T08:03:25;8.00;64.00
37910;DHT22;23741;49.446;8.754;2023-03-15T08:05:27;8.00;64.00
37910;DHT22;23741;49.446;8.754;2023-03-15T08:07:29;8.00;63.90
37910;DHT22;23741;49.446;8.754;2023-03-15T08:09:31;8.00;64.00
37910;DHT22;23741;49.446;8.754;2023-03-15T08:11:36;8.00;64.00
37910;DHT22;23741;49.446;8.754;2023-03-15T08:13:38;8.00;63.90
37910;DHT22;23741;49.446;8.754;2023-03-15T08:15:39;8.00;64.00
37910;DHT22;23741;49.446;8.754;2023-03-15T08:17:42;8.00;64.00
37910;DHT22;23741;49.446;8.754;2023-03-15T08:19:44;8.00;64.10
37910;DHT22;23741;49.446;8.754;2023-03-15T08:21:45;8.00;64.00
37910;DHT22;23741;49.446;8.754;2023-03-15T08:23:48;8.00;64.00
37910;DHT22;23741;49.446;8.754;2023-03-15T08:25:50;8.00;64.00
37910;DHT22;23741;49.446;8.754;2023-03-15T08:27:51;8.00;64.00
37910;DHT22;23741;49.446;8.754;2023-03-15T08:29:53;8.00;63.80
37910;DHT22;23741;49.446;8.754;2023-03-15T08:31:55;8.00;63.90
37910;DHT22;23741;49.446;8.754;2023-03-15T08:33:57;8.00;64.00
37910;DHT22;23741;49.446;8.754;2023-03-15T08:35:58;8.00;64.10
37910;DHT22;23741;49.446;8.754;2023-03-15T08:38:00;8.00;64.10
37910;DHT22;23741;49.446;8.754;2023-03-15T08:40:03;8.00;64.30
37910;DHT22;23741;49.446;8.754;2023-03-15T08:42:10;8.10;64.60
37910;DHT22;23741;49.446;8.754;2023-03-15T08:44:12;8.10;64.50
37910;DHT22;23741;49.446;8.754;2023-03-15T08:46:13;8.10;64.50
37910;DHT22;23741;49.446;8.754;2023-03-15T08:48:15;8.10;64.50
37910;DHT22;23741;49.446;8.754;2023-03-15T08:50:17;8.10;64.40
37910;DHT22;23741;49.446;8.754;2023-03-15T08:52:19;8.10;64.40
37910;DHT22;23741;49.446;8.754;2023-03-15T08:54:21;8.20;64.60
37910;DHT22;23741;49.446;8.754;2023-03-15T08:56:24;8.20;64.50
37910;DHT22;23741;49.446;8.754;2023-03-15T08:58:26;8.20;64.40
37910;DHT22;23741;49.446;8.754;2023-03-15T09:00:28;8.20;64.50
37910;DHT22;23741;49.446;8.754;2023-03-15T09:02:29;8.20;64.50
37910;DHT22;23741;49.446;8.754;2023-03-15T09:04:32;8.20;64.50
37910;DHT22;23741;49.446;8.754;2023-03-15T09:06:34;8.30;64.50
37910;DHT22;23741;49.446;8.754;2023-03-15T09:08:35;8.20;64.30
37910;DHT22;23741;49.446;8.754;2023-03-15T09:10:37;8.20;64.10
37910;DHT22;23741;49.446;8.754;2023-03-15T09:12:40;8.20;64.10
37910;DHT22;23741;49.446;8.754;2023-03-15T09:14:42;8.30;64.30
37910;DHT22;23741;49.446;8.754;2023-03-15T09:16:43;8.20;64.20
37910;DHT22;23741;49.446;8.754;2023-03-15T09:18:45;8.20;64.30
37910;DHT22;23741;49.446;8.754;2023-03-15T09:20:47;8.20;64.40
37910;DHT22;23741;49.446;8.754;2023-03-15T09:22:50;8.20;64.50
37910;DHT22;23741;49.446;8.754;2023-03-15T09:24:52;8.30;64.60
37910;DHT22;23741;49.446;8.754;2023-03-15T09:26:54;8.20;64.60
37910;DHT22;23741;49.446;8.754;2023-03-15T09:28:55;8.20;64.60
37910;DHT22;23741;49.446;8.754;2023-03-15T09:30:57;8.30;64.70
37910;DHT22;23741;49.446;8.754;2023-03-15T09:33:00;8.30;64.70
37910;DHT22;23741;49.446;8.754;2023-03-15T09:35:02;8.30;64.70
37910;DHT22;23741;49.446;8.754;2023-03-15T09:37:04;8.30;64.40
37910;DHT22;23741;49.446;8.754;2023-03-15T09:39:06;8.30;64.30
37910;DHT22;23741;49.446;8.754;2023-03-15T09:46:05;8.20;63.90
37910;DHT22;23741;49.446;8.754;2023-03-15T09:48:25;8.20;64.10
37910;DHT22;23741;49.446;8.754;2023-03-15T09:50:28;8.20;64.40
37910;DHT22;23741;49.446;8.754;2023-03-15T09:54:40;8.20;64.70
37910;DHT22;23741;49.446;8.754;2023-03-15T09:58:49;8.10;64.60
37910;DHT22;23741;49.446;8.754;2023-03-15T10:00:53;8.10;64.70
37910;DHT22;23741;49.446;8.754;2023-03-15T10:02:58;8.10;64.80
37910;DHT22;23741;49.446;8.754;2023-03-15T10:07:10;8.10;64.70
37910;DHT22;23741;49.446;8.754;2023-03-15T10:09:14;8.10;64.80
37910;DHT22;23741;49.446;8.754;2023-03-15T10:13:33;8.10;64.40
37910;DHT22;23741;49.446;8.754;2023-03-15T10:19:49;8.00;64.60
37910;DHT22;23741;49.446;8.754;2023-03-15T10:23:59;8.10;64.70
37910;DHT22;23741;49.446;8.754;2023-03-15T10:26:05;8.10;64.80
37910;DHT22;23741;49.446;8.754;2023-03-15T10:28:12;8.10;64.80
37910;DHT22;23741;49.446;8.754;2023-03-15T10:30:16;8.10;65.10
37910;DHT22;23741;49.446;8.754;2023-03-15T10:32:19;8.10;65.90
37910;DHT22;23741;49.446;8.754;2023-03-15T10:34:22;8.10;65.10
37910;DHT22;23741;49.446;8.754;2023-03-15T10:36:26;8.10;65.20
37910;DHT22;23741;49.446;8.754;2023-03-15T10:38:28;8.10;65.20
37910;DHT22;23741;49.446;8.754;2023-03-15T10:42:44;8.10;65.50
37910;DHT22;23741;49.446;8.754;2023-03-15T10:44:49;8.20;65.60
37910;DHT22;23741;49.446;8.754;2023-03-15T10:47:11;8.20;65.60
37910;DHT22;23741;49.446;8.754;2023-03-15T10:49:28;8.20;65.60
37910;DHT22;23741;49.446;8.754;2023-03-15T10:56:05;8.30;65.60
37910;DHT22;23741;49.446;8.754;2023-03-15T11:02:32;8.30;65.30
37910;DHT22;23741;49.446;8.754;2023-03-15T11:04:34;8.40;65.30
37910;DHT22;23741;49.446;8.754;2023-03-15T11:06:43;8.40;65.30
37910;DHT22;23741;49.446;8.754;2023-03-15T11:08:45;8.40;65.60
37910;DHT22;23741;49.446;8.754;2023-03-15T11:10:53;8.40;65.60
37910;DHT22;23741;49.446;8.754;2023-03-15T11:15:17;8.40;65.50
37910;DHT22;23741;49.446;8.754;2023-03-15T11:17:20;8.50;65.70
37910;DHT22;23741;49.446;8.754;2023-03-15T11:19:24;8.50;65.70
37910;DHT22;23741;49.446;8.754;2023-03-15T11:21:30;8.50;65.70
37910;DHT22;23741;49.446;8.754;2023-03-15T11:23:37;8.50;65.70
37910;DHT22;23741;49.446;8.754;2023-03-15T11:25:40;8.50;65.60
37910;DHT22;23741;49.446;8.754;2023-03-15T11:27:42;8.50;65.80
37910;DHT22;23741;49.446;8.754;2023-03-15T11:29:48;8.60;65.70
37910;DHT22;23741;49.446;8.754;2023-03-15T11:31:53;8.60;65.60
37910;DHT22;23741;49.446;8.754;2023-03-15T11:33:56;8.60;65.50
37910;DHT22;23741;49.446;8.754;2023-03-15T11:35:59;8.60;65.50
37910;DHT22;23741;49.446;8.754;2023-03-15T11:38:36;8.60;65.50
37910;DHT22;23741;49.446;8.754;2023-03-15T11:40:33;8.60;65.50
37910;DHT22;23741;49.446;8.754;2023-03-15T11:44:47;8.60;65.50
37910;DHT22;23741;49.446;8.754;2023-03-15T11:46:51;8.70;65.40
37910;DHT22;23741;49.446;8.754;2023-03-15T11:48:56;8.70;65.40
37910;DHT22;23741;49.446;8.754;2023-03-15T11:51:01;8.70;65.50
37910;DHT22;23741;49.446;8.754;2023-03-15T11:53:03;8.70;65.90
37910;DHT22;23741;49.446;8.754;2023-03-15T11:55:14;8.70;65.80
37910;DHT22;23741;49.446;8.754;2023-03-15T11:59:37;8.80;65.90
37910;DHT22;23741;49.446;8.754;2023-03-15T12:03:50;8.80;66.30
37910;DHT22;23741;49.446;8.754;2023-03-15T12:05:58;8.80;66.20
37910;DHT22;23741;49.446;8.754;2023-03-15T12:10:31;8.80;66.10
37910;DHT22;23741;49.446;8.754;2023-03-15T12:12:33;8.80;66.10
37910;DHT22;23741;49.446;8.754;2023-03-15T12:14:35;8.80;66.00
37910;DHT22;23741;49.446;8.754;2023-03-15T12:16:41;8.90;66.10
37910;DHT22;23741;49.446;8.754;2023-03-15T12:18:43;8.80;66.30
37910;DHT22;23741;49.446;8.754;2023-03-15T12:21:08;8.80;66.20
37910;DHT22;23741;49.446;8.754;2023-03-15T12:25:14;8.80;65.70
37910;DHT22;23741;49.446;8.754;2023-03-15T12:27:17;8.90;65.70
37910;DHT22;23741;49.446;8.754;2023-03-15T12:29:21;8.90;65.90
37910;DHT22;23741;49.446;8.754;2023-03-15T12:31:23;8.80;65.80
37910;DHT22;23741;49.446;8.754;2023-03-15T12:33:25;8.90;66.10
37910;DHT22;23741;49.446;8.754;2023-03-15T12:35:32;8.80;65.90
37910;DHT22;23741;49.446;8.754;2023-03-15T12:37:38;8.90;65.90
37910;DHT22;23741;49.446;8.754;2023-03-15T12:41:46;8.90;66.00
37910;DHT22;23741;49.446;8.754;2023-03-15T12:43:49;8.90;66.00
37910;DHT22;23741;49.446;8.754;2023-03-15T12:45:52;8.90;66.00
37910;DHT22;23741;49.446;8.754;2023-03-15T12:49:56;8.90;67.10
37910;DHT22;23741;49.446;8.754;2023-03-15T12:54:19;8.90;66.30
37910;DHT22;23741;49.446;8.754;2023-03-15T12:58:30;9.00;66.10
37910;DHT22;23741;49.446;8.754;2023-03-15T13:00:35;8.90;66.40
37910;DHT22;23741;49.446;8.754;2023-03-15T13:02:48;9.00;66.40
37910;DHT22;23741;49.446;8.754;2023-03-15T13:04:57;9.00;66.70
37910;DHT22;23741;49.446;8.754;2023-03-15T13:07:17;9.00;66.30
37910;DHT22;23741;49.446;8.754;2023-03-15T13:09:34;9.00;66.20
37910;DHT22;23741;49.446;8.754;2023-03-15T13:16:22;9.10;66.50
37910;DHT22;23741;49.446;8.754;2023-03-15T13:18:25;9.10;66.40
37910;DHT22;23741;49.446;8.754;2023-03-15T13:21:11;9.10;66.50
37910;DHT22;23741;49.446;8.754;2023-03-15T13:23:15;9.20;66.50
37910;DHT22;23741;49.446;8.754;2023-03-15T13:25:24;9.20;66.50
37910;DHT22;23741;49.446;8.754;2023-03-15T13:28:13;9.20;67.00
37910;DHT22;23741;49.446;8.754;2023-03-15T13:29:51;9.30;66.70
37910;DHT22;23741;49.446;8.754;2023-03-15T13:32:27;9.30;67.40
37910;DHT22;23741;49.446;8.754;2023-03-15T13:34:22;9.30;66.70
37910;DHT22;23741;49.446;8.754;2023-03-15T13:36:26;9.40;66.80
37910;DHT22;23741;49.446;8.754;2023-03-15T13:38:30;9.40;66.80
37910;DHT22;23741;49.446;8.754;2023-03-15T13:40:32;9.50;66.90
37910;DHT22;23741;49.446;8.754;2023-03-15T13:42:37;9.50;67.00
37910;DHT22;23741;49.446;8.754;2023-03-15T13:44:39;9.50;66.80
37910;DHT22;23741;49.446;8.754;2023-03-15T13:46:42;9.50;66.80
37910;DHT22;23741;49.446;8.754;2023-03-15T13:48:44;9.60;66.70
37910;DHT22;23741;49.446;8.754;2023-03-15T13:50:47;9.60;66.80
37910;DHT22;23741;49.446;8.754;2023-03-15T13:52:49;9.70;67.00
37910;DHT22;23741;49.446;8.754;2023-03-15T13:54:51;9.70;67.20
37910;DHT22;23741;49.446;8.754;2023-03-15T13:57:07;9.80;67.50
37910;DHT22;23741;49.446;8.754;2023-03-15T13:59:12;9.90;67.40
37910;DHT22;23741;49.446;8.754;2023-03-15T14:01:14;9.90;67.10
37910;DHT22;23741;49.446;8.754;2023-03-15T14:03:19;10.00;66.80
37910;DHT22;23741;49.446;8.754;2023-03-15T14:05:25;10.00;66.50
37910;DHT22;23741;49.446;8.754;2023-03-15T14:07:28;10.00;66.60
37910;DHT22;23741;49.446;8.754;2023-03-15T14:09:34;10.10;67.00
37910;DHT22;23741;49.446;8.754;2023-03-15T14:11:36;10.10;67.60
37910;DHT22;23741;49.446;8.754;2023-03-15T14:13:51;10.20;67.70
37910;DHT22;23741;49.446;8.754;2023-03-15T14:15:55;10.30;67.40
37910;DHT22;23741;49.446;8.754;2023-03-15T14:20:13;10.40;67.20
37910;DHT22;23741;49.446;8.754;2023-03-15T14:22:16;10.40;67.20
37910;DHT22;23741;49.446;8.754;2023-03-15T14:24:24;10.50;67.10
37910;DHT22;23741;49.446;8.754;2023-03-15T14:26:27;10.60;67.30
37910;DHT22;23741;49.446;8.754;2023-03-15T14:28:30;10.70;68.00
37910;DHT22;23741;49.446;8.754;2023-03-15T14:30:34;10.70;67.90
37910;DHT22;23741;49.446;8.754;2023-03-15T14:32:37;10.80;68.00
37910;DHT22;23741;49.446;8.754;2023-03-15T14:34:43;11.00;68.20
37910;DHT22;23741;49.446;8.754;2023-03-15T14:36:45;11.10;68.00